Pawcatuck, CT (06379)

6:05 AM EDT on August 04, 2015 (GMT -0400)
APRSWXNET | | Change Station
CLOSE
Current Station
Personal Weather Station
Location: Pawcatuck, CT
Elevation: 209 ft
Nearby Weather Stations

Elev 209 ft 41.39 °N, 71.81 °W | Updated 16 minutes ago

Overcast
Overcast
75 °F
Feels Like 73 °F
N
0
Wind Variable Wind from SSE
Gusts 0.0 mph

Today
High -- | Low -- °F
--% Chance of Precip.
Yesterday
High -- | Low -- °F
Precip. -- in
5:45 AM 8:01 PM
Waning Gibbous, 79% visible
Pressure 29.83 in
Visibility 5.0 miles
Clouds Scattered Clouds 500 ft
Overcast 1100 ft
Heat Index 73 °F
Dew Point 73 °F
Humidity 94%
Rainfall in
Snow Depth Not available.
UV 0 out of 12
Pollen 7.20 out of 12
Air Quality Not available.
Flu Activity Not available.
SPECI KWST 041000Z AUTO 20012G18KT 5SM VCTS BR SCT005 OVC011 23/22 A2983 RMK AO2 LTG DSNT ALQDS T02330222

More Conditions Fewer Conditions

Pressure 29.83 in
Visibility 5.0 miles
Clouds Scattered Clouds 500 ft
Overcast 1100 ft
Heat Index 73 °F
Dew Point 73 °F
Humidity 94%
Rainfall in
Snow Depth Not available.
UV 0 out of 12
Pollen 7.20 out of 12
Air Quality Not available.
Flu Activity Not available.
SPECI KWST 041000Z AUTO 20012G18KT 5SM VCTS BR SCT005 OVC011 23/22 A2983 RMK AO2 LTG DSNT ALQDS T02330222

More Conditions Fewer Conditions

10-Day Weather Forecast

×

Almanac

Astronomy

Aug. 04, 2015 Rise Set
Actual Time
Civil Twilight
Nautical Twilight
Astronomical Twilight
Moon
Length of Visible Light
Length of Day
Tomorrow will be .
, % of the Moon is Illuminated

Today's Extremes

State Highs State Lows

Community

WunderPhotos

Upload Photos

1,843,882 photos uploaded!

WunderBlogs® & News

Nearby

Air Quality

  Air Quality AQ Index Pollutant
Not available.

Snow Depth

Station Depth Elevation

Earthquake Activity

City Distance Mag. Time & Date
Minimum magnitude displayed is 2.5.

Coastal Water Temperatures

Place Temperature

Stations

Nearby Weather Stations

Station Location Temp. Windchill Dew Point Humidity Wind Precip. Elev Updated Type